sensor_id;sensor_type;location;lat;lon;timestamp;P1;P2;P0
69222;PMS7003;56514;51.816;-0.026;2023-05-10T00:00:51;1.75;1.75;1.50
69222;PMS7003;56514;51.816;-0.026;2023-05-10T00:03:36;1.75;1.75;1.25
69222;PMS7003;56514;51.816;-0.026;2023-05-10T00:06:21;4.00;4.00;3.50
69222;PMS7003;56514;51.816;-0.026;2023-05-10T00:09:06;2.00;2.00;2.00
69222;PMS7003;56514;51.816;-0.026;2023-05-10T00:11:51;3.50;3.50;2.50
69222;PMS7003;56514;51.816;-0.026;2023-05-10T00:14:36;4.00;4.00;3.50
69222;PMS7003;56514;51.816;-0.026;2023-05-10T00:17:21;1.00;1.00;1.00
69222;PMS7003;56514;51.816;-0.026;2023-05-10T00:20:07;1.00;1.00;1.00
69222;PMS7003;56514;51.816;-0.026;2023-05-10T00:22:52;1.50;1.50;1.00
69222;PMS7003;56514;51.816;-0.026;2023-05-10T00:25:37;1.00;1.00;1.00
69222;PMS7003;56514;51.816;-0.026;2023-05-10T00:28:21;1.00;1.00;1.00
69222;PMS7003;56514;51.816;-0.026;2023-05-10T00:31:06;1.00;1.00;0.00
69222;PMS7003;56514;51.816;-0.026;2023-05-10T00:33:51;1.00;1.00;1.00
69222;PMS7003;56514;51.816;-0.026;2023-05-10T00:36:36;2.00;2.00;1.25
69222;PMS7003;56514;51.816;-0.026;2023-05-10T00:39:21;1.75;1.75;1.25
69222;PMS7003;56514;51.816;-0.026;2023-05-10T00:42:05;1.00;1.00;1.00
69222;PMS7003;56514;51.816;-0.026;2023-05-10T00:44:50;2.50;2.50;2.00
69222;PMS7003;56514;51.816;-0.026;2023-05-10T00:47:35;1.00;1.00;1.00
69222;PMS7003;56514;51.816;-0.026;2023-05-10T00:50:21;1.50;1.50;1.00
69222;PMS7003;56514;51.816;-0.026;2023-05-10T00:53:07;1.25;1.25;1.00
69222;PMS7003;56514;51.816;-0.026;2023-05-10T00:55:53;5.00;5.00;2.00
69222;PMS7003;56514;51.816;-0.026;2023-05-10T00:58:37;4.00;4.00;3.00
69222;PMS7003;56514;51.816;-0.026;2023-05-10T01:01:23;2.50;2.50;2.00
69222;PMS7003;56514;51.816;-0.026;2023-05-10T01:04:09;5.25;5.25;4.00
69222;PMS7003;56514;51.816;-0.026;2023-05-10T01:06:58;4.50;4.50;4.00
69222;PMS7003;56514;51.816;-0.026;2023-05-10T01:09:43;3.00;3.00;1.50
69222;PMS7003;56514;51.816;-0.026;2023-05-10T01:12:29;4.75;4.75;2.50
69222;PMS7003;56514;51.816;-0.026;2023-05-10T01:15:14;7.00;7.00;4.00
69222;PMS7003;56514;51.816;-0.026;2023-05-10T01:18:01;7.00;7.00;5.50
69222;PMS7003;56514;51.816;-0.026;2023-05-10T01:20:48;6.00;6.00;4.00
69222;PMS7003;56514;51.816;-0.026;2023-05-10T01:36:43;4.00;4.00;2.00
69222;PMS7003;56514;51.816;-0.026;2023-05-10T01:39:47;4.00;4.00;2.00
69222;PMS7003;56514;51.816;-0.026;2023-05-10T01:42:48;7.25;6.00;4.00
69222;PMS7003;56514;51.816;-0.026;2023-05-10T01:45:47;3.25;3.25;1.50
69222;PMS7003;56514;51.816;-0.026;2023-05-10T01:48:43;5.00;5.00;3.50
69222;PMS7003;56514;51.816;-0.026;2023-05-10T01:51:43;4.00;4.00;2.00
69222;PMS7003;56514;51.816;-0.026;2023-05-10T01:54:31;4.00;4.00;2.50
69222;PMS7003;56514;51.816;-0.026;2023-05-10T01:57:18;2.00;2.00;1.00
69222;PMS7003;56514;51.816;-0.026;2023-05-10T02:00:05;3.50;3.50;3.00
69222;PMS7003;56514;51.816;-0.026;2023-05-10T02:02:52;1.75;1.75;1.00
69222;PMS7003;56514;51.816;-0.026;2023-05-10T02:05:41;2.00;1.50;1.25
69222;PMS7003;56514;51.816;-0.026;2023-05-10T02:08:30;2.00;2.00;1.75
69222;PMS7003;56514;51.816;-0.026;2023-05-10T02:11:15;2.50;2.50;1.00
69222;PMS7003;56514;51.816;-0.026;2023-05-10T02:14:03;1.00;1.00;0.25
69222;PMS7003;56514;51.816;-0.026;2023-05-10T02:16:50;4.75;4.75;2.00
69222;PMS7003;56514;51.816;-0.026;2023-05-10T02:19:42;2.00;2.00;1.00
69222;PMS7003;56514;51.816;-0.026;2023-05-10T02:22:28;3.50;3.50;2.00
69222;PMS7003;56514;51.816;-0.026;2023-05-10T02:25:14;3.50;3.50;1.00
69222;PMS7003;56514;51.816;-0.026;2023-05-10T02:28:00;2.50;2.50;2.00
69222;PMS7003;56514;51.816;-0.026;2023-05-10T02:30:48;2.50;2.50;2.00
69222;PMS7003;56514;51.816;-0.026;2023-05-10T02:33:34;4.00;4.00;2.00
69222;PMS7003;56514;51.816;-0.026;2023-05-10T02:36:20;3.00;3.00;1.75
69222;PMS7003;56514;51.816;-0.026;2023-05-10T02:39:06;1.25;1.25;0.50
69222;PMS7003;56514;51.816;-0.026;2023-05-10T02:41:57;5.75;4.75;4.00
69222;PMS7003;56514;51.816;-0.026;2023-05-10T02:44:43;3.00;3.00;2.50
69222;PMS7003;56514;51.816;-0.026;2023-05-10T02:47:32;4.50;4.50;3.50
69222;PMS7003;56514;51.816;-0.026;2023-05-10T02:50:17;2.75;2.50;2.00
69222;PMS7003;56514;51.816;-0.026;2023-05-10T02:53:06;4.00;4.00;2.00
69222;PMS7003;56514;51.816;-0.026;2023-05-10T02:55:57;3.00;3.00;2.00
69222;PMS7003;56514;51.816;-0.026;2023-05-10T02:58:45;2.50;2.50;2.00
69222;PMS7003;56514;51.816;-0.026;2023-05-10T03:01:31;2.00;2.00;2.00
69222;PMS7003;56514;51.816;-0.026;2023-05-10T03:04:17;2.50;2.50;2.00
69222;PMS7003;56514;51.816;-0.026;2023-05-10T03:07:02;3.50;3.50;2.00
69222;PMS7003;56514;51.816;-0.026;2023-05-10T03:09:47;3.00;3.00;2.00
69222;PMS7003;56514;51.816;-0.026;2023-05-10T03:12:45;4.50;4.50;4.00
69222;PMS7003;56514;51.816;-0.026;2023-05-10T03:15:56;7.00;4.75;4.00
69222;PMS7003;56514;51.816;-0.026;2023-05-10T03:19:05;4.25;4.25;4.25
69222;PMS7003;56514;51.816;-0.026;2023-05-10T03:21:58;2.00;2.00;1.00
69222;PMS7003;56514;51.816;-0.026;2023-05-10T03:24:47;6.50;6.50;4.00
69222;PMS7003;56514;51.816;-0.026;2023-05-10T03:27:33;4.75;4.75;2.50
69222;PMS7003;56514;51.816;-0.026;2023-05-10T03:30:20;1.75;1.75;1.50
69222;PMS7003;56514;51.816;-0.026;2023-05-10T03:33:06;6.00;6.00;4.00
69222;PMS7003;56514;51.816;-0.026;2023-05-10T03:35:51;5.00;5.00;4.00
69222;PMS7003;56514;51.816;-0.026;2023-05-10T03:38:36;6.25;6.25;4.25
69222;PMS7003;56514;51.816;-0.026;2023-05-10T03:41:21;7.00;7.00;3.00
69222;PMS7003;56514;51.816;-0.026;2023-05-10T03:44:06;4.25;4.25;4.00
69222;PMS7003;56514;51.816;-0.026;2023-05-10T03:46:51;5.25;5.25;4.00
69222;PMS7003;56514;51.816;-0.026;2023-05-10T03:49:36;4.25;4.25;2.50
69222;PMS7003;56514;51.816;-0.026;2023-05-10T03:52:20;5.00;5.00;3.00
69222;PMS7003;56514;51.816;-0.026;2023-05-10T03:55:05;5.00;5.00;4.00
69222;PMS7003;56514;51.816;-0.026;2023-05-10T03:57:50;3.50;3.50;2.00
69222;PMS7003;56514;51.816;-0.026;2023-05-10T04:00:35;5.00;5.00;4.00
69222;PMS7003;56514;51.816;-0.026;2023-05-10T04:03:20;6.00;6.00;4.00
69222;PMS7003;56514;51.816;-0.026;2023-05-10T04:06:05;7.00;7.00;4.00
69222;PMS7003;56514;51.816;-0.026;2023-05-10T04:08:50;2.00;2.00;1.25
69222;PMS7003;56514;51.816;-0.026;2023-05-10T04:11:35;4.00;4.00;2.00
69222;PMS7003;56514;51.816;-0.026;2023-05-10T04:14:20;4.25;4.25;4.00
69222;PMS7003;56514;51.816;-0.026;2023-05-10T04:17:05;4.00;4.00;2.00
69222;PMS7003;56514;51.816;-0.026;2023-05-10T04:19:50;4.25;4.25;4.00
69222;PMS7003;56514;51.816;-0.026;2023-05-10T04:22:37;4.50;4.50;2.00
69222;PMS7003;56514;51.816;-0.026;2023-05-10T04:25:22;3.50;3.50;2.00
69222;PMS7003;56514;51.816;-0.026;2023-05-10T04:28:07;4.75;4.75;3.50
69222;PMS7003;56514;51.816;-0.026;2023-05-10T04:30:52;4.00;4.00;2.00
69222;PMS7003;56514;51.816;-0.026;2023-05-10T04:33:41;6.50;6.50;4.00
69222;PMS7003;56514;51.816;-0.026;2023-05-10T04:36:26;4.25;4.25;4.25
69222;PMS7003;56514;51.816;-0.026;2023-05-10T04:39:12;7.00;7.00;4.25
69222;PMS7003;56514;51.816;-0.026;2023-05-10T04:41:58;4.25;4.25;3.00
69222;PMS7003;56514;51.816;-0.026;2023-05-10T04:44:43;3.00;3.00;1.75
69222;PMS7003;56514;51.816;-0.026;2023-05-10T04:47:28;2.00;2.00;1.50
69222;PMS7003;56514;51.816;-0.026;2023-05-10T04:50:12;4.00;4.00;2.00
69222;PMS7003;56514;51.816;-0.026;2023-05-10T04:52:57;2.00;2.00;1.00
69222;PMS7003;56514;51.816;-0.026;2023-05-10T04:55:42;4.75;4.25;4.00
69222;PMS7003;56514;51.816;-0.026;2023-05-10T04:58:26;4.75;4.75;2.50
69222;PMS7003;56514;51.816;-0.026;2023-05-10T05:01:12;2.00;2.00;1.50
69222;PMS7003;56514;51.816;-0.026;2023-05-10T05:03:57;2.00;2.00;1.00
69222;PMS7003;56514;51.816;-0.026;2023-05-10T05:06:41;4.00;4.00;3.50
69222;PMS7003;56514;51.816;-0.026;2023-05-10T05:09:26;4.75;4.50;2.00
69222;PMS7003;56514;51.816;-0.026;2023-05-10T05:12:12;4.00;4.00;2.00
69222;PMS7003;56514;51.816;-0.026;2023-05-10T05:14:58;4.00;4.00;2.50
69222;PMS7003;56514;51.816;-0.026;2023-05-10T05:17:43;3.50;3.50;2.50
69222;PMS7003;56514;51.816;-0.026;2023-05-10T05:20:28;3.00;3.00;2.00
69222;PMS7003;56514;51.816;-0.026;2023-05-10T05:23:16;2.00;2.00;1.75
69222;PMS7003;56514;51.816;-0.026;2023-05-10T05:26:01;4.00;4.00;1.75
69222;PMS7003;56514;51.816;-0.026;2023-05-10T05:28:46;2.50;2.50;2.00
69222;PMS7003;56514;51.816;-0.026;2023-05-10T05:31:32;3.00;3.00;1.75
69222;PMS7003;56514;51.816;-0.026;2023-05-10T05:34:17;6.00;6.00;4.50
69222;PMS7003;56514;51.816;-0.026;2023-05-10T05:37:02;4.50;4.50;2.00
69222;PMS7003;56514;51.816;-0.026;2023-05-10T05:39:47;5.25;5.25;3.50
69222;PMS7003;56514;51.816;-0.026;2023-05-10T05:42:32;8.00;6.50;4.00
69222;PMS7003;56514;51.816;-0.026;2023-05-10T05:45:17;7.25;5.50;4.00
69222;PMS7003;56514;51.816;-0.026;2023-05-10T05:48:02;6.00;6.00;5.00
69222;PMS7003;56514;51.816;-0.026;2023-05-10T05:50:47;5.50;5.50;4.25
69222;PMS7003;56514;51.816;-0.026;2023-05-10T05:53:32;5.00;5.00;5.00
69222;PMS7003;56514;51.816;-0.026;2023-05-10T05:56:18;4.50;4.50;4.00
69222;PMS7003;56514;51.816;-0.026;2023-05-10T05:59:08;4.00;4.00;3.00
69222;PMS7003;56514;51.816;-0.026;2023-05-10T06:01:53;7.25;6.50;4.00
69222;PMS7003;56514;51.816;-0.026;2023-05-10T06:04:38;7.75;7.75;5.00
69222;PMS7003;56514;51.816;-0.026;2023-05-10T06:07:23;5.00;5.00;4.25
69222;PMS7003;56514;51.816;-0.026;2023-05-10T06:10:08;7.50;7.50;4.00
69222;PMS7003;56514;51.816;-0.026;2023-05-10T06:12:54;5.50;5.50;4.25
69222;PMS7003;56514;51.816;-0.026;2023-05-10T06:15:39;6.50;6.50;4.75
69222;PMS7003;56514;51.816;-0.026;2023-05-10T06:18:24;10.25;10.25;6.50
69222;PMS7003;56514;51.816;-0.026;2023-05-10T06:21:09;7.00;7.00;5.00
69222;PMS7003;56514;51.816;-0.026;2023-05-10T06:23:54;3.50;3.50;1.75
69222;PMS7003;56514;51.816;-0.026;2023-05-10T06:26:42;12.75;11.00;7.00
69222;PMS7003;56514;51.816;-0.026;2023-05-10T06:29:27;13.00;12.50;7.25
69222;PMS7003;56514;51.816;-0.026;2023-05-10T06:32:12;12.75;12.75;9.50
69222;PMS7003;56514;51.816;-0.026;2023-05-10T06:34:57;13.75;13.50;8.00
69222;PMS7003;56514;51.816;-0.026;2023-05-10T06:37:42;14.50;14.50;10.25
69222;PMS7003;56514;51.816;-0.026;2023-05-10T06:40:26;10.25;10.25;7.00
69222;PMS7003;56514;51.816;-0.026;2023-05-10T06:43:12;10.75;10.50;7.75
69222;PMS7003;56514;51.816;-0.026;2023-05-10T06:45:57;11.00;11.00;8.00
69222;PMS7003;56514;51.816;-0.026;2023-05-10T06:48:42;13.50;13.50;7.75
69222;PMS7003;56514;51.816;-0.026;2023-05-10T06:51:28;8.75;8.75;7.00
69222;PMS7003;56514;51.816;-0.026;2023-05-10T06:54:12;11.00;11.00;7.25
69222;PMS7003;56514;51.816;-0.026;2023-05-10T06:56:57;10.25;10.25;6.50
69222;PMS7003;56514;51.816;-0.026;2023-05-10T06:59:42;11.50;11.50;8.50
69222;PMS7003;56514;51.816;-0.026;2023-05-10T07:02:27;10.25;10.25;7.25
69222;PMS7003;56514;51.816;-0.026;2023-05-10T07:05:12;9.25;9.25;5.50
69222;PMS7003;56514;51.816;-0.026;2023-05-10T07:07:58;9.25;9.25;6.00
69222;PMS7003;56514;51.816;-0.026;2023-05-10T07:10:43;8.00;8.00;5.00
69222;PMS7003;56514;51.816;-0.026;2023-05-10T07:13:28;8.00;8.00;5.00
69222;PMS7003;56514;51.816;-0.026;2023-05-10T07:16:14;8.00;8.00;4.25
69222;PMS7003;56514;51.816;-0.026;2023-05-10T07:19:17;8.00;8.00;5.00
69222;PMS7003;56514;51.816;-0.026;2023-05-10T07:22:02;8.25;7.50;5.00
69222;PMS7003;56514;51.816;-0.026;2023-05-10T07:24:47;6.75;6.50;4.50
69222;PMS7003;56514;51.816;-0.026;2023-05-10T07:27:32;7.00;7.00;4.50
69222;PMS7003;56514;51.816;-0.026;2023-05-10T07:30:17;3.00;3.00;1.75
69222;PMS7003;56514;51.816;-0.026;2023-05-10T07:33:02;5.25;5.25;4.00
69222;PMS7003;56514;51.816;-0.026;2023-05-10T07:35:47;5.00;5.00;4.00
69222;PMS7003;56514;51.816;-0.026;2023-05-10T07:38:32;5.00;5.00;4.25
69222;PMS7003;56514;51.816;-0.026;2023-05-10T07:41:16;7.00;7.00;5.00
69222;PMS7003;56514;51.816;-0.026;2023-05-10T07:44:01;4.00;4.00;3.50
69222;PMS7003;56514;51.816;-0.026;2023-05-10T07:46:46;5.00;5.00;4.50
69222;PMS7003;56514;51.816;-0.026;2023-05-10T07:49:32;4.00;4.00;2.00
69222;PMS7003;56514;51.816;-0.026;2023-05-10T07:52:16;2.00;2.00;1.25
69222;PMS7003;56514;51.816;-0.026;2023-05-10T07:55:02;4.00;4.00;2.50
69222;PMS7003;56514;51.816;-0.026;2023-05-10T07:57:47;4.25;4.25;2.00
69222;PMS7003;56514;51.816;-0.026;2023-05-10T08:00:32;3.00;3.00;2.00
69222;PMS7003;56514;51.816;-0.026;2023-05-10T08:03:16;2.00;2.00;1.00
69222;PMS7003;56514;51.816;-0.026;2023-05-10T08:06:02;4.75;4.75;3.50
69222;PMS7003;56514;51.816;-0.026;2023-05-10T08:08:48;3.00;3.00;2.00
69222;PMS7003;56514;51.816;-0.026;2023-05-10T08:11:37;2.00;2.00;1.00
69222;PMS7003;56514;51.816;-0.026;2023-05-10T08:14:23;2.00;2.00;2.00
69222;PMS7003;56514;51.816;-0.026;2023-05-10T08:17:07;2.50;2.50;2.00
69222;PMS7003;56514;51.816;-0.026;2023-05-10T08:19:52;4.00;4.00;2.50
69222;PMS7003;56514;51.816;-0.026;2023-05-10T08:22:37;3.75;3.50;3.00
69222;PMS7003;56514;51.816;-0.026;2023-05-10T08:25:22;2.00;2.00;2.00
69222;PMS7003;56514;51.816;-0.026;2023-05-10T08:28:06;4.50;4.50;2.00
69222;PMS7003;56514;51.816;-0.026;2023-05-10T08:30:51;5.00;5.00;2.00
69222;PMS7003;56514;51.816;-0.026;2023-05-10T08:33:37;2.00;2.00;2.00
69222;PMS7003;56514;51.816;-0.026;2023-05-10T08:36:21;4.50;4.50;2.00
69222;PMS7003;56514;51.816;-0.026;2023-05-10T08:39:08;4.00;4.00;3.50
69222;PMS7003;56514;51.816;-0.026;2023-05-10T08:41:53;3.50;3.50;2.00
69222;PMS7003;56514;51.816;-0.026;2023-05-10T08:44:43;2.00;2.00;1.50
69222;PMS7003;56514;51.816;-0.026;2023-05-10T08:47:29;0.25;0.25;0.25
69222;PMS7003;56514;51.816;-0.026;2023-05-10T08:50:15;3.50;3.50;2.50
69222;PMS7003;56514;51.816;-0.026;2023-05-10T08:53:05;2.75;2.75;2.00
69222;PMS7003;56514;51.816;-0.026;2023-05-10T08:55:53;3.75;3.75;2.00
69222;PMS7003;56514;51.816;-0.026;2023-05-10T08:58:42;1.00;1.00;1.00
69222;PMS7003;56514;51.816;-0.026;2023-05-10T09:01:28;2.00;2.00;1.25
69222;PMS7003;56514;51.816;-0.026;2023-05-10T09:04:15;3.75;3.75;2.00
69222;PMS7003;56514;51.816;-0.026;2023-05-10T09:07:00;2.00;2.00;1.00
69222;PMS7003;56514;51.816;-0.026;2023-05-10T09:09:46;2.00;2.00;2.00
69222;PMS7003;56514;51.816;-0.026;2023-05-10T09:12:31;2.50;2.50;2.00
69222;PMS7003;56514;51.816;-0.026;2023-05-10T09:15:17;2.00;2.00;2.00
69222;PMS7003;56514;51.816;-0.026;2023-05-10T09:18:04;2.25;2.25;2.00
69222;PMS7003;56514;51.816;-0.026;2023-05-10T09:20:49;4.50;4.50;2.00
69222;PMS7003;56514;51.816;-0.026;2023-05-10T09:23:34;2.00;2.00;2.00
69222;PMS7003;56514;51.816;-0.026;2023-05-10T09:26:22;2.00;2.00;1.25
69222;PMS7003;56514;51.816;-0.026;2023-05-10T09:32:49;2.00;2.00;1.75
69222;PMS7003;56514;51.816;-0.026;2023-05-10T09:35:34;1.75;1.75;1.00
69222;PMS7003;56514;51.816;-0.026;2023-05-10T09:38:20;3.25;3.25;2.00
69222;PMS7003;56514;51.816;-0.026;2023-05-10T09:41:14;3.00;3.00;2.00
69222;PMS7003;56514;51.816;-0.026;2023-05-10T09:44:01;1.25;1.25;1.00
69222;PMS7003;56514;51.816;-0.026;2023-05-10T09:46:49;2.00;2.00;1.50
69222;PMS7003;56514;51.816;-0.026;2023-05-10T09:49:37;3.00;3.00;2.00
69222;PMS7003;56514;51.816;-0.026;2023-05-10T09:52:21;1.00;1.00;1.00
69222;PMS7003;56514;51.816;-0.026;2023-05-10T09:55:06;2.00;2.00;2.00
69222;PMS7003;56514;51.816;-0.026;2023-05-10T09:57:58;2.25;2.25;2.00
69222;PMS7003;56514;51.816;-0.026;2023-05-10T10:00:45;3.00;3.00;2.00
69222;PMS7003;56514;51.816;-0.026;2023-05-10T10:03:32;2.75;2.75;2.00
69222;PMS7003;56514;51.816;-0.026;2023-05-10T10:06:18;2.50;2.50;2.00
69222;PMS7003;56514;51.816;-0.026;2023-05-10T10:09:04;3.00;3.00;2.00
69222;PMS7003;56514;51.816;-0.026;2023-05-10T10:11:50;2.25;2.25;1.50
69222;PMS7003;56514;51.816;-0.026;2023-05-10T10:14:36;2.50;1.25;1.00
69222;PMS7003;56514;51.816;-0.026;2023-05-10T10:17:21;2.00;2.00;1.00
69222;PMS7003;56514;51.816;-0.026;2023-05-10T10:20:06;1.75;1.75;1.25
69222;PMS7003;56514;51.816;-0.026;2023-05-10T10:22:52;1.50;1.50;1.25
69222;PMS7003;56514;51.816;-0.026;2023-05-10T10:25:38;2.00;2.00;2.00
69222;PMS7003;56514;51.816;-0.026;2023-05-10T10:31:22;1.50;1.50;1.25
69222;PMS7003;56514;51.816;-0.026;2023-05-10T10:34:20;1.00;1.00;1.00
69222;PMS7003;56514;51.816;-0.026;2023-05-10T10:37:06;1.00;1.00;1.00
69222;PMS7003;56514;51.816;-0.026;2023-05-10T10:39:51;1.00;1.00;0.50
69222;PMS7003;56514;51.816;-0.026;2023-05-10T10:42:54;1.50;1.50;1.25
69222;PMS7003;56514;51.816;-0.026;2023-05-10T10:45:43;2.00;2.00;1.00
69222;PMS7003;56514;51.816;-0.026;2023-05-10T10:49:14;1.00;1.00;1.00
69222;PMS7003;56514;51.816;-0.026;2023-05-10T10:52:12;1.25;1.25;1.00
69222;PMS7003;56514;51.816;-0.026;2023-05-10T11:00:52;1.00;1.00;1.00
69222;PMS7003;56514;51.816;-0.026;2023-05-10T11:03:55;1.00;1.00;1.00
69222;PMS7003;56514;51.816;-0.026;2023-05-10T11:10:19;1.00;1.00;1.00
69222;PMS7003;56514;51.816;-0.026;2023-05-10T11:13:06;1.25;1.25;1.00
69222;PMS7003;56514;51.816;-0.026;2023-05-10T11:15:52;1.00;1.00;1.00
69222;PMS7003;56514;51.816;-0.026;2023-05-10T11:18:37;1.00;1.00;1.00
69222;PMS7003;56514;51.816;-0.026;2023-05-10T11:21:23;1.00;1.00;1.00
69222;PMS7003;56514;51.816;-0.026;2023-05-10T11:24:12;1.00;1.00;1.00
69222;PMS7003;56514;51.816;-0.026;2023-05-10T11:26:59;1.25;1.25;1.00
69222;PMS7003;56514;51.816;-0.026;2023-05-10T11:29:44;0.00;0.00;0.00
69222;PMS7003;56514;51.816;-0.026;2023-05-10T11:32:30;1.00;1.00;1.00
69222;PMS7003;56514;51.816;-0.026;2023-05-10T11:35:15;1.00;1.00;1.00
69222;PMS7003;56514;51.816;-0.026;2023-05-10T11:38:00;1.00;1.00;1.00
69222;PMS7003;56514;51.816;-0.026;2023-05-10T11:40:44;1.00;1.00;1.00
69222;PMS7003;56514;51.816;-0.026;2023-05-10T11:43:30;1.00;1.00;1.00
69222;PMS7003;56514;51.816;-0.026;2023-05-10T11:46:16;1.00;1.00;1.00
69222;PMS7003;56514;51.816;-0.026;2023-05-10T11:49:04;0.25;0.25;0.25
69222;PMS7003;56514;51.816;-0.026;2023-05-10T11:51:51;0.75;0.75;0.75
69222;PMS7003;56514;51.816;-0.026;2023-05-10T11:54:36;0.25;0.25;0.25
69222;PMS7003;56514;51.816;-0.026;2023-05-10T11:57:25;1.00;1.00;1.00
69222;PMS7003;56514;51.816;-0.026;2023-05-10T12:00:13;1.00;1.00;1.00
69222;PMS7003;56514;51.816;-0.026;2023-05-10T12:02:59;0.75;0.75;0.00
69222;PMS7003;56514;51.816;-0.026;2023-05-10T12:05:45;1.00;1.00;0.25
69222;PMS7003;56514;51.816;-0.026;2023-05-10T12:08:30;0.00;0.00;0.00
69222;PMS7003;56514;51.816;-0.026;2023-05-10T12:11:15;0.50;0.50;0.50
69222;PMS7003;56514;51.816;-0.026;2023-05-10T12:14:00;0.00;0.00;0.00
69222;PMS7003;56514;51.816;-0.026;2023-05-10T12:16:49;0.50;0.50;0.00
69222;PMS7003;56514;51.816;-0.026;2023-05-10T12:19:38;0.50;0.50;0.50
69222;PMS7003;56514;51.816;-0.026;2023-05-10T12:22:23;1.00;1.00;0.75
69222;PMS7003;56514;51.816;-0.026;2023-05-10T12:25:09;0.00;0.00;0.00
69222;PMS7003;56514;51.816;-0.026;2023-05-10T12:27:55;0.50;0.50;0.00
69222;PMS7003;56514;51.816;-0.026;2023-05-10T12:30:42;0.75;0.75;0.75
69222;PMS7003;56514;51.816;-0.026;2023-05-10T12:33:35;1.00;1.00;1.00
69222;PMS7003;56514;51.816;-0.026;2023-05-10T12:36:28;0.25;0.25;0.00
69222;PMS7003;56514;51.816;-0.026;2023-05-10T12:39:13;1.00;1.00;1.00
69222;PMS7003;56514;51.816;-0.026;2023-05-10T12:41:57;0.00;0.00;0.00
69222;PMS7003;56514;51.816;-0.026;2023-05-10T12:44:42;0.00;0.00;0.00
69222;PMS7003;56514;51.816;-0.026;2023-05-10T12:47:27;1.00;1.00;1.00
69222;PMS7003;56514;51.816;-0.026;2023-05-10T12:50:12;1.00;1.00;1.00
69222;PMS7003;56514;51.816;-0.026;2023-05-10T12:52:56;0.00;0.00;0.00
69222;PMS7003;56514;51.816;-0.026;2023-05-10T12:55:43;1.00;1.00;0.50
69222;PMS7003;56514;51.816;-0.026;2023-05-10T12:58:28;0.75;0.75;0.75
69222;PMS7003;56514;51.816;-0.026;2023-05-10T13:01:13;1.00;1.00;1.00
69222;PMS7003;56514;51.816;-0.026;2023-05-10T13:03:58;1.00;1.00;1.00
69222;PMS7003;56514;51.816;-0.026;2023-05-10T13:06:44;1.00;1.00;1.00
69222;PMS7003;56514;51.816;-0.026;2023-05-10T13:09:29;2.00;2.00;1.00
69222;PMS7003;56514;51.816;-0.026;2023-05-10T13:12:14;0.00;0.00;0.00
69222;PMS7003;56514;51.816;-0.026;2023-05-10T13:14:59;0.00;0.00;0.00
69222;PMS7003;56514;51.816;-0.026;2023-05-10T13:17:44;0.00;0.00;0.00
69222;PMS7003;56514;51.816;-0.026;2023-05-10T13:20:29;0.00;0.00;0.00
69222;PMS7003;56514;51.816;-0.026;2023-05-10T13:23:15;0.25;0.25;0.00
69222;PMS7003;56514;51.816;-0.026;2023-05-10T13:26:00;0.50;0.50;0.50
69222;PMS7003;56514;51.816;-0.026;2023-05-10T13:28:44;0.75;0.75;0.50
69222;PMS7003;56514;51.816;-0.026;2023-05-10T13:31:30;0.00;0.00;0.00
69222;PMS7003;56514;51.816;-0.026;2023-05-10T13:34:16;0.50;0.50;0.00
69222;PMS7003;56514;51.816;-0.026;2023-05-10T13:37:01;0.25;0.25;0.00
69222;PMS7003;56514;51.816;-0.026;2023-05-10T13:39:48;1.00;1.00;1.00
69222;PMS7003;56514;51.816;-0.026;2023-05-10T13:42:33;2.00;2.00;1.00
69222;PMS7003;56514;51.816;-0.026;2023-05-10T13:45:17;0.00;0.00;0.00
69222;PMS7003;56514;51.816;-0.026;2023-05-10T13:48:02;0.00;0.00;0.00
69222;PMS7003;56514;51.816;-0.026;2023-05-10T13:50:47;1.50;1.50;1.00
69222;PMS7003;56514;51.816;-0.026;2023-05-10T13:53:32;1.00;1.00;0.75
69222;PMS7003;56514;51.816;-0.026;2023-05-10T13:56:17;1.00;1.00;1.00
69222;PMS7003;56514;51.816;-0.026;2023-05-10T13:59:02;1.00;1.00;1.00
69222;PMS7003;56514;51.816;-0.026;2023-05-10T14:01:47;2.00;2.00;1.75
69222;PMS7003;56514;51.816;-0.026;2023-05-10T14:04:31;0.25;0.25;0.25
69222;PMS7003;56514;51.816;-0.026;2023-05-10T14:07:16;1.00;1.00;1.00
69222;PMS7003;56514;51.816;-0.026;2023-05-10T14:10:02;0.00;0.00;0.00
69222;PMS7003;56514;51.816;-0.026;2023-05-10T14:12:47;0.00;0.00;0.00
69222;PMS7003;56514;51.816;-0.026;2023-05-10T14:15:32;0.00;0.00;0.00
69222;PMS7003;56514;51.816;-0.026;2023-05-10T14:18:16;0.00;0.00;0.00
69222;PMS7003;56514;51.816;-0.026;2023-05-10T14:21:02;0.00;0.00;0.00
69222;PMS7003;56514;51.816;-0.026;2023-05-10T14:23:48;0.00;0.00;0.00
69222;PMS7003;56514;51.816;-0.026;2023-05-10T14:26:33;0.00;0.00;0.00
69222;PMS7003;56514;51.816;-0.026;2023-05-10T14:29:19;0.00;0.00;0.00
69222;PMS7003;56514;51.816;-0.026;2023-05-10T14:32:04;0.00;0.00;0.00
69222;PMS7003;56514;51.816;-0.026;2023-05-10T14:34:51;1.00;1.00;1.00
69222;PMS7003;56514;51.816;-0.026;2023-05-10T14:37:35;0.50;0.50;0.50
69222;PMS7003;56514;51.816;-0.026;2023-05-10T14:40:21;0.75;0.75;0.00
69222;PMS7003;56514;51.816;-0.026;2023-05-10T14:43:06;0.25;0.25;0.25
69222;PMS7003;56514;51.816;-0.026;2023-05-10T14:45:50;0.00;0.00;0.00
69222;PMS7003;56514;51.816;-0.026;2023-05-10T14:48:35;1.25;1.00;1.00
69222;PMS7003;56514;51.816;-0.026;2023-05-10T14:51:20;2.00;2.00;1.25
69222;PMS7003;56514;51.816;-0.026;2023-05-10T14:54:06;1.00;1.00;1.00
69222;PMS7003;56514;51.816;-0.026;2023-05-10T14:56:52;1.00;1.00;1.00
69222;PMS7003;56514;51.816;-0.026;2023-05-10T14:59:37;1.00;1.00;1.00
69222;PMS7003;56514;51.816;-0.026;2023-05-10T15:02:22;0.00;0.00;0.00
69222;PMS7003;56514;51.816;-0.026;2023-05-10T15:05:06;1.00;1.00;1.00
69222;PMS7003;56514;51.816;-0.026;2023-05-10T15:07:52;0.00;0.00;0.00
69222;PMS7003;56514;51.816;-0.026;2023-05-10T15:10:37;0.00;0.00;0.00
69222;PMS7003;56514;51.816;-0.026;2023-05-10T15:13:21;0.50;0.50;0.00
69222;PMS7003;56514;51.816;-0.026;2023-05-10T15:16:06;0.00;0.00;0.00
69222;PMS7003;56514;51.816;-0.026;2023-05-10T15:18:51;0.25;0.25;0.25
69222;PMS7003;56514;51.816;-0.026;2023-05-10T15:21:36;0.00;0.00;0.00
69222;PMS7003;56514;51.816;-0.026;2023-05-10T15:24:22;0.75;0.75;0.75
69222;PMS7003;56514;51.816;-0.026;2023-05-10T15:27:07;0.00;0.00;0.00
69222;PMS7003;56514;51.816;-0.026;2023-05-10T15:29:53;0.50;0.50;0.25
69222;PMS7003;56514;51.816;-0.026;2023-05-10T15:32:37;0.00;0.00;0.00
69222;PMS7003;56514;51.816;-0.026;2023-05-10T15:35:25;0.00;0.00;0.00
69222;PMS7003;56514;51.816;-0.026;2023-05-10T15:38:10;0.00;0.00;0.00
69222;PMS7003;56514;51.816;-0.026;2023-05-10T15:40:56;0.00;0.00;0.00
69222;PMS7003;56514;51.816;-0.026;2023-05-10T15:43:42;1.00;1.00;1.00
69222;PMS7003;56514;51.816;-0.026;2023-05-10T15:46:27;0.25;0.25;0.25
69222;PMS7003;56514;51.816;-0.026;2023-05-10T15:49:13;2.00;2.00;1.00
69222;PMS7003;56514;51.816;-0.026;2023-05-10T15:51:58;0.00;0.00;0.00
69222;PMS7003;56514;51.816;-0.026;2023-05-10T15:54:43;1.00;1.00;1.00
69222;PMS7003;56514;51.816;-0.026;2023-05-10T15:57:28;0.25;0.25;0.00
69222;PMS7003;56514;51.816;-0.026;2023-05-10T16:00:14;0.00;0.00;0.00
69222;PMS7003;56514;51.816;-0.026;2023-05-10T16:03:00;0.00;0.00;0.00
69222;PMS7003;56514;51.816;-0.026;2023-05-10T16:05:45;0.00;0.00;0.00
69222;PMS7003;56514;51.816;-0.026;2023-05-10T16:08:29;0.00;0.00;0.00
69222;PMS7003;56514;51.816;-0.026;2023-05-10T16:11:16;1.00;1.00;1.00
69222;PMS7003;56514;51.816;-0.026;2023-05-10T16:14:01;0.75;0.75;0.75
69222;PMS7003;56514;51.816;-0.026;2023-05-10T16:16:46;0.25;0.25;0.25
69222;PMS7003;56514;51.816;-0.026;2023-05-10T16:19:32;0.00;0.00;0.00
69222;PMS7003;56514;51.816;-0.026;2023-05-10T16:22:16;0.00;0.00;0.00
69222;PMS7003;56514;51.816;-0.026;2023-05-10T16:25:02;0.00;0.00;0.00
69222;PMS7003;56514;51.816;-0.026;2023-05-10T16:27:47;0.00;0.00;0.00